sensor_id;sensor_type;location;lat;lon;timestamp;P1;durP1;ratioP1;P2;durP2;ratioP2
24451;SDS011;13350;50.984;5.822;2022-12-07T00:02:24;13.07;;;8.13;;
24451;SDS011;13350;50.984;5.822;2022-12-07T00:04:52;11.60;;;8.00;;
24451;SDS011;13350;50.984;5.822;2022-12-07T00:07:19;11.23;;;8.10;;
24451;SDS011;13350;50.984;5.822;2022-12-07T00:09:46;12.18;;;8.15;;
24451;SDS011;13350;50.984;5.822;2022-12-07T00:12:14;9.65;;;7.55;;
24451;SDS011;13350;50.984;5.822;2022-12-07T00:14:41;11.65;;;8.43;;
24451;SDS011;13350;50.984;5.822;2022-12-07T00:17:09;10.82;;;7.72;;
24451;SDS011;13350;50.984;5.822;2022-12-07T00:19:36;8.52;;;7.57;;
24451;SDS011;13350;50.984;5.822;2022-12-07T00:22:03;10.73;;;8.25;;
24451;SDS011;13350;50.984;5.822;2022-12-07T00:24:30;11.05;;;7.88;;
24451;SDS011;13350;50.984;5.822;2022-12-07T00:26:57;12.15;;;7.85;;
24451;SDS011;13350;50.984;5.822;2022-12-07T00:29:25;10.93;;;8.18;;
24451;SDS011;13350;50.984;5.822;2022-12-07T00:31:53;9.85;;;8.02;;
24451;SDS011;13350;50.984;5.822;2022-12-07T00:34:21;9.77;;;7.85;;
24451;SDS011;13350;50.984;5.822;2022-12-07T00:36:48;12.15;;;8.45;;
24451;SDS011;13350;50.984;5.822;2022-12-07T00:39:16;9.45;;;7.80;;
24451;SDS011;13350;50.984;5.822;2022-12-07T00:41:43;10.43;;;8.57;;
24451;SDS011;13350;50.984;5.822;2022-12-07T00:44:10;11.02;;;8.48;;
24451;SDS011;13350;50.984;5.822;2022-12-07T00:46:39;12.75;;;9.18;;
24451;SDS011;13350;50.984;5.822;2022-12-07T00:49:06;12.18;;;9.57;;
24451;SDS011;13350;50.984;5.822;2022-12-07T00:51:33;11.80;;;9.55;;
24451;SDS011;13350;50.984;5.822;2022-12-07T00:54:00;11.02;;;9.85;;
24451;SDS011;13350;50.984;5.822;2022-12-07T00:56:28;13.65;;;10.82;;
24451;SDS011;13350;50.984;5.822;2022-12-07T00:58:56;11.65;;;10.18;;
24451;SDS011;13350;50.984;5.822;2022-12-07T01:01:24;12.70;;;10.60;;
24451;SDS011;13350;50.984;5.822;2022-12-07T01:03:54;12.93;;;10.52;;
24451;SDS011;13350;50.984;5.822;2022-12-07T01:06:22;15.18;;;10.98;;
24451;SDS011;13350;50.984;5.822;2022-12-07T01:08:50;15.15;;;11.30;;
24451;SDS011;13350;50.984;5.822;2022-12-07T01:11:19;15.57;;;12.00;;
24451;SDS011;13350;50.984;5.822;2022-12-07T01:13:49;16.15;;;11.98;;
24451;SDS011;13350;50.984;5.822;2022-12-07T01:16:17;15.85;;;11.88;;
24451;SDS011;13350;50.984;5.822;2022-12-07T01:18:45;13.98;;;12.48;;
24451;SDS011;13350;50.984;5.822;2022-12-07T01:21:15;16.05;;;11.82;;
24451;SDS011;13350;50.984;5.822;2022-12-07T01:23:44;13.65;;;11.50;;
24451;SDS011;13350;50.984;5.822;2022-12-07T01:26:12;15.57;;;12.30;;
24451;SDS011;13350;50.984;5.822;2022-12-07T01:28:40;15.25;;;12.00;;
24451;SDS011;13350;50.984;5.822;2022-12-07T01:31:08;16.90;;;12.77;;
24451;SDS011;13350;50.984;5.822;2022-12-07T01:33:37;14.40;;;11.90;;
24451;SDS011;13350;50.984;5.822;2022-12-07T01:36:08;16.27;;;13.18;;
24451;SDS011;13350;50.984;5.822;2022-12-07T01:38:41;18.67;;;13.02;;
24451;SDS011;13350;50.984;5.822;2022-12-07T01:41:09;16.63;;;12.10;;
24451;SDS011;13350;50.984;5.822;2022-12-07T01:44:06;16.45;;;12.93;;
24451;SDS011;13350;50.984;5.822;2022-12-07T01:49:12;16.90;;;12.20;;
24451;SDS011;13350;50.984;5.822;2022-12-07T01:51:43;18.75;;;13.32;;
24451;SDS011;13350;50.984;5.822;2022-12-07T01:54:14;14.32;;;12.82;;
24451;SDS011;13350;50.984;5.822;2022-12-07T01:56:44;16.77;;;13.15;;
24451;SDS011;13350;50.984;5.822;2022-12-07T01:59:15;14.07;;;12.45;;
24451;SDS011;13350;50.984;5.822;2022-12-07T02:01:44;15.82;;;13.23;;
24451;SDS011;13350;50.984;5.822;2022-12-07T02:04:11;16.75;;;12.25;;
24451;SDS011;13350;50.984;5.822;2022-12-07T02:06:39;17.23;;;13.75;;
24451;SDS011;13350;50.984;5.822;2022-12-07T02:09:07;18.77;;;14.02;;
24451;SDS011;13350;50.984;5.822;2022-12-07T02:11:36;18.23;;;13.93;;
24451;SDS011;13350;50.984;5.822;2022-12-07T02:14:03;17.20;;;14.10;;
24451;SDS011;13350;50.984;5.822;2022-12-07T02:16:32;18.65;;;13.82;;
24451;SDS011;13350;50.984;5.822;2022-12-07T02:22:11;18.50;;;14.20;;
24451;SDS011;13350;50.984;5.822;2022-12-07T02:24:54;18.95;;;14.68;;
24451;SDS011;13350;50.984;5.822;2022-12-07T02:27:44;17.92;;;13.38;;
24451;SDS011;13350;50.984;5.822;2022-12-07T02:30:14;16.45;;;13.60;;
24451;SDS011;13350;50.984;5.822;2022-12-07T02:32:49;16.67;;;13.77;;
24451;SDS011;13350;50.984;5.822;2022-12-07T02:35:24;18.83;;;14.93;;
24451;SDS011;13350;50.984;5.822;2022-12-07T02:37:58;18.95;;;14.95;;
24451;SDS011;13350;50.984;5.822;2022-12-07T02:40:30;16.08;;;13.50;;
24451;SDS011;13350;50.984;5.822;2022-12-07T02:43:02;17.63;;;13.63;;
24451;SDS011;13350;50.984;5.822;2022-12-07T02:45:35;16.98;;;13.95;;
24451;SDS011;13350;50.984;5.822;2022-12-07T02:48:06;16.85;;;13.45;;
24451;SDS011;13350;50.984;5.822;2022-12-07T02:50:36;20.70;;;14.23;;
24451;SDS011;13350;50.984;5.822;2022-12-07T02:53:03;18.65;;;14.30;;
24451;SDS011;13350;50.984;5.822;2022-12-07T02:55:31;17.90;;;14.48;;
24451;SDS011;13350;50.984;5.822;2022-12-07T02:58:16;16.30;;;13.48;;
24451;SDS011;13350;50.984;5.822;2022-12-07T03:00:58;17.33;;;13.88;;
24451;SDS011;13350;50.984;5.822;2022-12-07T03:03:35;16.98;;;13.27;;
24451;SDS011;13350;50.984;5.822;2022-12-07T03:06:07;15.15;;;12.57;;
24451;SDS011;13350;50.984;5.822;2022-12-07T03:08:44;15.52;;;12.70;;
24451;SDS011;13350;50.984;5.822;2022-12-07T03:11:21;14.63;;;12.88;;
24451;SDS011;13350;50.984;5.822;2022-12-07T03:13:54;20.52;;;13.95;;
24451;SDS011;13350;50.984;5.822;2022-12-07T03:16:28;15.77;;;13.05;;
24451;SDS011;13350;50.984;5.822;2022-12-07T03:18:59;16.05;;;13.32;;
24451;SDS011;13350;50.984;5.822;2022-12-07T03:21:31;18.35;;;12.90;;
24451;SDS011;13350;50.984;5.822;2022-12-07T03:24:01;17.05;;;13.27;;
24451;SDS011;13350;50.984;5.822;2022-12-07T03:26:34;15.40;;;13.05;;
24451;SDS011;13350;50.984;5.822;2022-12-07T03:29:06;17.85;;;13.40;;
24451;SDS011;13350;50.984;5.822;2022-12-07T03:31:38;16.05;;;13.32;;
24451;SDS011;13350;50.984;5.822;2022-12-07T03:34:10;17.55;;;12.55;;
24451;SDS011;13350;50.984;5.822;2022-12-07T03:36:43;15.85;;;12.82;;
24451;SDS011;13350;50.984;5.822;2022-12-07T03:39:17;16.02;;;13.40;;
24451;SDS011;13350;50.984;5.822;2022-12-07T03:41:49;17.92;;;12.93;;
24451;SDS011;13350;50.984;5.822;2022-12-07T03:44:17;16.25;;;13.35;;
24451;SDS011;13350;50.984;5.822;2022-12-07T03:46:48;17.20;;;13.70;;
24451;SDS011;13350;50.984;5.822;2022-12-07T03:49:25;17.00;;;13.80;;
24451;SDS011;13350;50.984;5.822;2022-12-07T03:51:57;15.90;;;13.05;;
24451;SDS011;13350;50.984;5.822;2022-12-07T03:54:30;15.32;;;13.68;;
24451;SDS011;13350;50.984;5.822;2022-12-07T03:57:00;15.52;;;12.75;;
24451;SDS011;13350;50.984;5.822;2022-12-07T03:59:29;17.13;;;12.70;;
24451;SDS011;13350;50.984;5.822;2022-12-07T04:02:02;15.02;;;12.88;;
24451;SDS011;13350;50.984;5.822;2022-12-07T04:04:30;14.93;;;12.43;;
24451;SDS011;13350;50.984;5.822;2022-12-07T04:06:59;14.07;;;12.57;;
24451;SDS011;13350;50.984;5.822;2022-12-07T04:09:26;16.88;;;13.13;;
24451;SDS011;13350;50.984;5.822;2022-12-07T04:11:53;17.50;;;12.90;;
24451;SDS011;13350;50.984;5.822;2022-12-07T04:14:20;18.35;;;12.77;;
24451;SDS011;13350;50.984;5.822;2022-12-07T04:16:48;16.45;;;11.80;;
24451;SDS011;13350;50.984;5.822;2022-12-07T04:19:18;17.70;;;13.30;;
24451;SDS011;13350;50.984;5.822;2022-12-07T04:21:46;17.63;;;12.30;;
24451;SDS011;13350;50.984;5.822;2022-12-07T04:24:14;15.52;;;12.52;;
24451;SDS011;13350;50.984;5.822;2022-12-07T04:26:42;15.45;;;12.63;;
24451;SDS011;13350;50.984;5.822;2022-12-07T04:29:10;17.60;;;12.60;;
24451;SDS011;13350;50.984;5.822;2022-12-07T04:31:37;15.68;;;12.27;;
24451;SDS011;13350;50.984;5.822;2022-12-07T04:34:04;17.98;;;12.55;;
24451;SDS011;13350;50.984;5.822;2022-12-07T04:36:34;15.43;;;12.90;;
24451;SDS011;13350;50.984;5.822;2022-12-07T04:39:02;15.05;;;12.07;;
24451;SDS011;13350;50.984;5.822;2022-12-07T04:41:29;15.50;;;11.50;;
24451;SDS011;13350;50.984;5.822;2022-12-07T04:43:57;14.88;;;12.15;;
24451;SDS011;13350;50.984;5.822;2022-12-07T04:46:26;15.75;;;11.77;;
24451;SDS011;13350;50.984;5.822;2022-12-07T04:48:55;15.95;;;12.27;;
24451;SDS011;13350;50.984;5.822;2022-12-07T04:51:24;13.80;;;11.65;;
24451;SDS011;13350;50.984;5.822;2022-12-07T04:53:54;13.88;;;10.88;;
24451;SDS011;13350;50.984;5.822;2022-12-07T04:56:22;16.40;;;12.15;;
24451;SDS011;13350;50.984;5.822;2022-12-07T04:58:51;12.30;;;10.98;;
24451;SDS011;13350;50.984;5.822;2022-12-07T05:01:20;14.75;;;11.38;;
24451;SDS011;13350;50.984;5.822;2022-12-07T05:03:48;14.30;;;11.15;;
24451;SDS011;13350;50.984;5.822;2022-12-07T05:06:16;15.00;;;10.93;;
24451;SDS011;13350;50.984;5.822;2022-12-07T05:08:43;15.85;;;11.48;;
24451;SDS011;13350;50.984;5.822;2022-12-07T05:11:12;11.98;;;10.65;;
24451;SDS011;13350;50.984;5.822;2022-12-07T05:14:00;14.98;;;11.25;;
24451;SDS011;13350;50.984;5.822;2022-12-07T05:16:28;13.93;;;10.80;;
24451;SDS011;13350;50.984;5.822;2022-12-07T05:18:55;15.02;;;10.25;;
24451;SDS011;13350;50.984;5.822;2022-12-07T05:21:23;13.07;;;10.50;;
24451;SDS011;13350;50.984;5.822;2022-12-07T05:23:50;15.95;;;11.18;;
24451;SDS011;13350;50.984;5.822;2022-12-07T05:26:19;14.60;;;11.25;;
24451;SDS011;13350;50.984;5.822;2022-12-07T05:28:49;16.77;;;10.82;;
24451;SDS011;13350;50.984;5.822;2022-12-07T05:31:17;14.40;;;11.30;;
24451;SDS011;13350;50.984;5.822;2022-12-07T05:33:44;15.38;;;11.63;;
24451;SDS011;13350;50.984;5.822;2022-12-07T05:36:12;14.18;;;11.40;;
24451;SDS011;13350;50.984;5.822;2022-12-07T05:38:39;15.63;;;12.23;;
24451;SDS011;13350;50.984;5.822;2022-12-07T05:41:07;12.95;;;11.00;;
24451;SDS011;13350;50.984;5.822;2022-12-07T05:43:58;14.88;;;11.15;;
24451;SDS011;13350;50.984;5.822;2022-12-07T05:46:25;15.40;;;11.77;;
24451;SDS011;13350;50.984;5.822;2022-12-07T05:48:52;16.52;;;12.50;;
24451;SDS011;13350;50.984;5.822;2022-12-07T05:51:20;15.65;;;13.18;;
24451;SDS011;13350;50.984;5.822;2022-12-07T05:53:47;15.98;;;12.35;;
24451;SDS011;13350;50.984;5.822;2022-12-07T05:56:14;17.63;;;12.48;;
24451;SDS011;13350;50.984;5.822;2022-12-07T05:58:41;18.67;;;13.38;;
24451;SDS011;13350;50.984;5.822;2022-12-07T06:03:54;16.45;;;11.52;;
24451;SDS011;13350;50.984;5.822;2022-12-07T06:06:21;17.20;;;12.10;;
24451;SDS011;13350;50.984;5.822;2022-12-07T06:08:49;15.07;;;12.48;;
24451;SDS011;13350;50.984;5.822;2022-12-07T06:11:16;14.88;;;12.25;;
24451;SDS011;13350;50.984;5.822;2022-12-07T06:14:00;15.48;;;12.32;;
24451;SDS011;13350;50.984;5.822;2022-12-07T06:16:29;16.70;;;12.57;;
24451;SDS011;13350;50.984;5.822;2022-12-07T06:18:56;15.63;;;12.98;;
24451;SDS011;13350;50.984;5.822;2022-12-07T06:21:23;15.40;;;12.95;;
24451;SDS011;13350;50.984;5.822;2022-12-07T06:23:51;17.70;;;14.15;;
24451;SDS011;13350;50.984;5.822;2022-12-07T06:26:19;16.10;;;12.82;;
24451;SDS011;13350;50.984;5.822;2022-12-07T06:28:46;17.00;;;13.18;;
24451;SDS011;13350;50.984;5.822;2022-12-07T06:31:13;16.80;;;13.93;;
24451;SDS011;13350;50.984;5.822;2022-12-07T06:33:42;15.85;;;12.65;;
24451;SDS011;13350;50.984;5.822;2022-12-07T06:36:09;17.88;;;13.93;;
24451;SDS011;13350;50.984;5.822;2022-12-07T06:38:37;20.30;;;14.25;;
24451;SDS011;13350;50.984;5.822;2022-12-07T06:41:04;17.90;;;13.45;;
24451;SDS011;13350;50.984;5.822;2022-12-07T06:43:31;17.08;;;13.23;;
24451;SDS011;13350;50.984;5.822;2022-12-07T06:45:59;20.75;;;14.65;;
24451;SDS011;13350;50.984;5.822;2022-12-07T06:48:26;18.73;;;14.00;;
24451;SDS011;13350;50.984;5.822;2022-12-07T06:50:55;19.63;;;14.90;;
24451;SDS011;13350;50.984;5.822;2022-12-07T06:53:22;17.10;;;14.75;;
24451;SDS011;13350;50.984;5.822;2022-12-07T06:55:49;22.27;;;15.52;;
24451;SDS011;13350;50.984;5.822;2022-12-07T06:58:17;18.35;;;13.98;;
24451;SDS011;13350;50.984;5.822;2022-12-07T07:00:44;20.85;;;14.18;;
24451;SDS011;13350;50.984;5.822;2022-12-07T07:03:11;19.55;;;14.13;;
24451;SDS011;13350;50.984;5.822;2022-12-07T07:05:39;18.48;;;15.02;;
24451;SDS011;13350;50.984;5.822;2022-12-07T07:08:07;18.65;;;14.60;;
24451;SDS011;13350;50.984;5.822;2022-12-07T07:10:34;18.02;;;14.48;;
24451;SDS011;13350;50.984;5.822;2022-12-07T07:13:02;18.02;;;14.82;;
24451;SDS011;13350;50.984;5.822;2022-12-07T07:15:30;17.42;;;14.35;;
24451;SDS011;13350;50.984;5.822;2022-12-07T07:17:58;18.15;;;14.57;;
24451;SDS011;13350;50.984;5.822;2022-12-07T07:20:25;17.65;;;13.00;;
24451;SDS011;13350;50.984;5.822;2022-12-07T07:22:53;18.10;;;12.80;;
24451;SDS011;13350;50.984;5.822;2022-12-07T07:25:23;19.23;;;14.77;;
24451;SDS011;13350;50.984;5.822;2022-12-07T07:27:50;17.90;;;13.23;;
24451;SDS011;13350;50.984;5.822;2022-12-07T07:30:17;17.05;;;13.00;;
24451;SDS011;13350;50.984;5.822;2022-12-07T07:32:45;19.60;;;13.95;;
24451;SDS011;13350;50.984;5.822;2022-12-07T07:35:12;18.98;;;13.75;;
24451;SDS011;13350;50.984;5.822;2022-12-07T07:37:39;16.73;;;13.15;;
24451;SDS011;13350;50.984;5.822;2022-12-07T07:40:07;18.35;;;13.52;;
24451;SDS011;13350;50.984;5.822;2022-12-07T07:42:36;17.65;;;13.50;;
24451;SDS011;13350;50.984;5.822;2022-12-07T07:45:03;19.30;;;13.63;;
24451;SDS011;13350;50.984;5.822;2022-12-07T07:47:31;16.88;;;12.85;;
24451;SDS011;13350;50.984;5.822;2022-12-07T07:49:58;14.50;;;12.00;;
24451;SDS011;13350;50.984;5.822;2022-12-07T07:52:26;16.48;;;11.20;;
24451;SDS011;13350;50.984;5.822;2022-12-07T07:54:53;17.77;;;12.18;;
24451;SDS011;13350;50.984;5.822;2022-12-07T07:57:20;16.98;;;12.88;;
24451;SDS011;13350;50.984;5.822;2022-12-07T07:59:49;18.20;;;13.55;;
24451;SDS011;13350;50.984;5.822;2022-12-07T08:02:16;15.93;;;12.82;;
24451;SDS011;13350;50.984;5.822;2022-12-07T08:04:45;20.23;;;13.82;;
24451;SDS011;13350;50.984;5.822;2022-12-07T08:07:13;19.52;;;13.50;;
24451;SDS011;13350;50.984;5.822;2022-12-07T08:09:40;20.73;;;14.02;;
24451;SDS011;13350;50.984;5.822;2022-12-07T08:12:08;20.02;;;14.15;;
24451;SDS011;13350;50.984;5.822;2022-12-07T08:14:35;16.35;;;13.95;;
24451;SDS011;13350;50.984;5.822;2022-12-07T08:17:04;19.52;;;14.50;;
24451;SDS011;13350;50.984;5.822;2022-12-07T08:19:31;18.73;;;14.75;;
24451;SDS011;13350;50.984;5.822;2022-12-07T08:21:59;21.67;;;14.93;;
24451;SDS011;13350;50.984;5.822;2022-12-07T08:24:26;20.35;;;16.10;;
24451;SDS011;13350;50.984;5.822;2022-12-07T08:26:54;20.08;;;14.82;;
24451;SDS011;13350;50.984;5.822;2022-12-07T08:29:21;20.70;;;14.35;;
24451;SDS011;13350;50.984;5.822;2022-12-07T08:31:48;22.70;;;15.00;;
24451;SDS011;13350;50.984;5.822;2022-12-07T08:34:17;19.83;;;14.77;;
24451;SDS011;13350;50.984;5.822;2022-12-07T08:36:44;21.23;;;16.15;;
24451;SDS011;13350;50.984;5.822;2022-12-07T08:39:11;19.50;;;14.52;;
24451;SDS011;13350;50.984;5.822;2022-12-07T08:41:38;20.70;;;15.52;;
24451;SDS011;13350;50.984;5.822;2022-12-07T08:44:06;19.05;;;14.63;;
24451;SDS011;13350;50.984;5.822;2022-12-07T08:46:34;22.75;;;16.17;;
24451;SDS011;13350;50.984;5.822;2022-12-07T08:49:05;22.10;;;15.30;;
24451;SDS011;13350;50.984;5.822;2022-12-07T08:51:35;20.10;;;15.27;;
24451;SDS011;13350;50.984;5.822;2022-12-07T08:54:03;21.80;;;15.00;;
24451;SDS011;13350;50.984;5.822;2022-12-07T08:56:33;24.42;;;15.93;;
24451;SDS011;13350;50.984;5.822;2022-12-07T08:59:01;21.00;;;14.70;;
24451;SDS011;13350;50.984;5.822;2022-12-07T09:01:29;20.98;;;15.07;;
24451;SDS011;13350;50.984;5.822;2022-12-07T09:03:56;20.02;;;15.98;;
24451;SDS011;13350;50.984;5.822;2022-12-07T09:06:23;21.23;;;16.20;;
24451;SDS011;13350;50.984;5.822;2022-12-07T09:08:53;22.30;;;15.65;;
24451;SDS011;13350;50.984;5.822;2022-12-07T09:11:23;20.77;;;15.07;;
24451;SDS011;13350;50.984;5.822;2022-12-07T09:13:50;23.20;;;15.88;;
24451;SDS011;13350;50.984;5.822;2022-12-07T09:16:17;19.98;;;14.52;;
24451;SDS011;13350;50.984;5.822;2022-12-07T09:18:44;20.80;;;15.32;;
24451;SDS011;13350;50.984;5.822;2022-12-07T09:21:11;24.00;;;15.50;;
24451;SDS011;13350;50.984;5.822;2022-12-07T09:23:38;19.33;;;15.13;;
24451;SDS011;13350;50.984;5.822;2022-12-07T09:26:09;20.20;;;15.25;;
24451;SDS011;13350;50.984;5.822;2022-12-07T09:28:36;20.58;;;16.08;;
24451;SDS011;13350;50.984;5.822;2022-12-07T09:31:04;22.50;;;15.40;;
24451;SDS011;13350;50.984;5.822;2022-12-07T09:33:32;20.30;;;14.95;;
24451;SDS011;13350;50.984;5.822;2022-12-07T09:35:59;21.25;;;14.93;;
24451;SDS011;13350;50.984;5.822;2022-12-07T09:38:26;19.15;;;14.73;;
24451;SDS011;13350;50.984;5.822;2022-12-07T09:40:55;20.52;;;14.43;;
24451;SDS011;13350;50.984;5.822;2022-12-07T09:43:24;21.35;;;15.88;;
24451;SDS011;13350;50.984;5.822;2022-12-07T09:45:53;22.63;;;15.02;;
24451;SDS011;13350;50.984;5.822;2022-12-07T09:48:22;21.50;;;16.17;;
24451;SDS011;13350;50.984;5.822;2022-12-07T09:50:54;21.67;;;15.80;;
24451;SDS011;13350;50.984;5.822;2022-12-07T09:53:24;19.10;;;14.85;;
24451;SDS011;13350;50.984;5.822;2022-12-07T09:55:54;20.65;;;14.90;;
24451;SDS011;13350;50.984;5.822;2022-12-07T09:58:22;20.63;;;13.85;;
24451;SDS011;13350;50.984;5.822;2022-12-07T10:00:53;18.25;;;12.93;;
24451;SDS011;13350;50.984;5.822;2022-12-07T10:03:23;16.55;;;12.77;;
24451;SDS011;13350;50.984;5.822;2022-12-07T10:05:50;18.20;;;12.55;;
24451;SDS011;13350;50.984;5.822;2022-12-07T10:08:18;16.65;;;12.52;;
24451;SDS011;13350;50.984;5.822;2022-12-07T10:10:47;14.73;;;10.85;;
24451;SDS011;13350;50.984;5.822;2022-12-07T10:13:18;17.75;;;11.73;;
24451;SDS011;13350;50.984;5.822;2022-12-07T10:15:50;13.98;;;10.63;;
24451;SDS011;13350;50.984;5.822;2022-12-07T10:18:26;15.43;;;10.43;;
24451;SDS011;13350;50.984;5.822;2022-12-07T10:23:59;13.55;;;10.15;;
24451;SDS011;13350;50.984;5.822;2022-12-07T10:26:29;12.68;;;9.20;;
24451;SDS011;13350;50.984;5.822;2022-12-07T10:28:58;12.50;;;8.85;;
24451;SDS011;13350;50.984;5.822;2022-12-07T10:31:29;11.88;;;8.73;;
24451;SDS011;13350;50.984;5.822;2022-12-07T10:33:57;13.50;;;8.80;;
24451;SDS011;13350;50.984;5.822;2022-12-07T10:36:26;11.73;;;8.18;;
24451;SDS011;13350;50.984;5.822;2022-12-07T10:39:03;11.38;;;8.18;;
24451;SDS011;13350;50.984;5.822;2022-12-07T10:41:41;11.43;;;8.02;;
24451;SDS011;13350;50.984;5.822;2022-12-07T10:44:20;10.13;;;8.27;;
24451;SDS011;13350;50.984;5.822;2022-12-07T10:46:55;9.68;;;7.35;;
24451;SDS011;13350;50.984;5.822;2022-12-07T10:52:53;9.05;;;5.63;;
24451;SDS011;13350;50.984;5.822;2022-12-07T10:55:39;9.18;;;6.25;;
24451;SDS011;13350;50.984;5.822;2022-12-07T10:58:27;6.82;;;4.95;;
24451;SDS011;13350;50.984;5.822;2022-12-07T11:01:08;6.60;;;4.60;;
24451;SDS011;13350;50.984;5.822;2022-12-07T11:03:47;5.25;;;4.15;;
24451;SDS011;13350;50.984;5.822;2022-12-07T11:06:31;8.98;;;5.75;;
24451;SDS011;13350;50.984;5.822;2022-12-07T11:09:21;7.05;;;5.30;;
24451;SDS011;13350;50.984;5.822;2022-12-07T11:12:09;10.70;;;6.57;;
24451;SDS011;13350;50.984;5.822;2022-12-07T11:14:44;8.25;;;5.57;;
24451;SDS011;13350;50.984;5.822;2022-12-07T11:17:22;10.85;;;5.05;;
24451;SDS011;13350;50.984;5.822;2022-12-07T11:20:05;8.63;;;4.93;;
24451;SDS011;13350;50.984;5.822;2022-12-07T11:22:48;9.45;;;5.13;;
24451;SDS011;13350;50.984;5.822;2022-12-07T11:25:23;7.38;;;4.63;;
24451;SDS011;13350;50.984;5.822;2022-12-07T11:28:02;11.27;;;4.43;;
24451;SDS011;13350;50.984;5.822;2022-12-07T11:30:40;8.93;;;5.18;;
24451;SDS011;13350;50.984;5.822;2022-12-07T11:33:15;6.40;;;3.38;;
24451;SDS011;13350;50.984;5.822;2022-12-07T11:35:50;8.60;;;4.82;;
24451;SDS011;13350;50.984;5.822;2022-12-07T11:38:30;7.07;;;4.60;;
24451;SDS011;13350;50.984;5.822;2022-12-07T11:41:03;7.45;;;4.18;;
24451;SDS011;13350;50.984;5.822;2022-12-07T11:43:52;11.35;;;5.95;;
24451;SDS011;13350;50.984;5.822;2022-12-07T11:46:23;7.47;;;5.20;;
24451;SDS011;13350;50.984;5.822;2022-12-07T11:48:54;8.20;;;4.55;;
24451;SDS011;13350;50.984;5.822;2022-12-07T11:51:30;8.40;;;4.30;;
24451;SDS011;13350;50.984;5.822;2022-12-07T11:54:03;7.03;;;5.00;;
24451;SDS011;13350;50.984;5.822;2022-12-07T11:56:37;7.03;;;4.40;;
24451;SDS011;13350;50.984;5.822;2022-12-07T11:59:07;7.13;;;4.63;;
24451;SDS011;13350;50.984;5.822;2022-12-07T12:01:41;8.00;;;4.45;;
24451;SDS011;13350;50.984;5.822;2022-12-07T12:04:19;7.60;;;5.30;;
24451;SDS011;13350;50.984;5.822;2022-12-07T12:06:56;5.55;;;2.75;;
24451;SDS011;13350;50.984;5.822;2022-12-07T12:09:25;6.22;;;3.63;;
24451;SDS011;13350;50.984;5.822;2022-12-07T12:12:07;8.30;;;4.15;;
24451;SDS011;13350;50.984;5.822;2022-12-07T12:15:13;6.78;;;3.40;;
24451;SDS011;13350;50.984;5.822;2022-12-07T12:17:54;6.15;;;3.20;;
24451;SDS011;13350;50.984;5.822;2022-12-07T12:20:40;7.63;;;3.45;;
24451;SDS011;13350;50.984;5.822;2022-12-07T12:23:13;6.05;;;2.78;;
24451;SDS011;13350;50.984;5.822;2022-12-07T12:25:44;5.43;;;2.72;;
24451;SDS011;13350;50.984;5.822;2022-12-07T12:28:20;5.55;;;2.38;;
24451;SDS011;13350;50.984;5.822;2022-12-07T12:31:05;6.65;;;2.80;;
24451;SDS011;13350;50.984;5.822;2022-12-07T12:33:35;8.15;;;2.92;;
24451;SDS011;13350;50.984;5.822;2022-12-07T12:36:17;6.75;;;2.85;;
24451;SDS011;13350;50.984;5.822;2022-12-07T12:38:50;10.60;;;3.97;;
24451;SDS011;13350;50.984;5.822;2022-12-07T12:41:52;10.20;;;3.75;;
24451;SDS011;13350;50.984;5.822;2022-12-07T12:47:40;6.53;;;3.15;;
24451;SDS011;13350;50.984;5.822;2022-12-07T12:50:18;6.20;;;3.45;;
24451;SDS011;13350;50.984;5.822;2022-12-07T12:55:54;6.95;;;3.00;;
24451;SDS011;13350;50.984;5.822;2022-12-07T12:58:48;7.90;;;3.33;;
24451;SDS011;13350;50.984;5.822;2022-12-07T13:01:33;6.22;;;3.03;;
24451;SDS011;13350;50.984;5.822;2022-12-07T13:07:12;5.13;;;3.15;;
24451;SDS011;13350;50.984;5.822;2022-12-07T13:09:59;5.13;;;3.10;;
24451;SDS011;13350;50.984;5.822;2022-12-07T13:12:30;4.68;;;2.90;;
24451;SDS011;13350;50.984;5.822;2022-12-07T13:14:58;5.80;;;3.20;;
24451;SDS011;13350;50.984;5.822;2022-12-07T13:23:20;5.72;;;2.95;;
24451;SDS011;13350;50.984;5.822;2022-12-07T13:26:04;4.85;;;2.78;;
24451;SDS011;13350;50.984;5.822;2022-12-07T13:28:45;5.87;;;3.07;;
24451;SDS011;13350;50.984;5.822;2022-12-07T13:31:14;7.18;;;2.83;;
24451;SDS011;13350;50.984;5.822;2022-12-07T13:33:49;5.53;;;2.50;;
24451;SDS011;13350;50.984;5.822;2022-12-07T13:36:18;5.88;;;2.58;;
24451;SDS011;13350;50.984;5.822;2022-12-07T13:38:49;4.78;;;2.80;;
24451;SDS011;13350;50.984;5.822;2022-12-07T13:41:19;6.63;;;3.28;;
24451;SDS011;13350;50.984;5.822;2022-12-07T13:43:50;5.68;;;3.00;;
24451;SDS011;13350;50.984;5.822;2022-12-07T13:46:20;6.72;;;2.92;;
24451;SDS011;13350;50.984;5.822;2022-12-07T13:48:56;7.40;;;3.70;;
24451;SDS011;13350;50.984;5.822;2022-12-07T13:51:24;5.80;;;3.00;;
24451;SDS011;13350;50.984;5.822;2022-12-07T13:53:53;5.38;;;2.90;;
24451;SDS011;13350;50.984;5.822;2022-12-07T13:56:22;7.90;;;3.38;;
24451;SDS011;13350;50.984;5.822;2022-12-07T13:58:55;8.13;;;3.38;;
24451;SDS011;13350;50.984;5.822;2022-12-07T14:01:23;7.70;;;3.13;;
24451;SDS011;13350;50.984;5.822;2022-12-07T14:03:51;5.72;;;2.97;;
24451;SDS011;13350;50.984;5.822;2022-12-07T14:06:27;6.90;;;2.70;;
24451;SDS011;13350;50.984;5.822;2022-12-07T14:09:07;5.97;;;2.97;;
24451;SDS011;13350;50.984;5.822;2022-12-07T14:11:35;8.23;;;3.10;;
24451;SDS011;13350;50.984;5.822;2022-12-07T14:14:05;5.28;;;2.78;;
24451;SDS011;13350;50.984;5.822;2022-12-07T14:16:33;4.78;;;2.50;;
24451;SDS011;13350;50.984;5.822;2022-12-07T14:19:02;7.18;;;3.00;;
24451;SDS011;13350;50.984;5.822;2022-12-07T14:21:32;6.90;;;4.38;;
24451;SDS011;13350;50.984;5.822;2022-12-07T14:24:12;7.68;;;4.32;;
24451;SDS011;13350;50.984;5.822;2022-12-07T14:26:43;4.72;;;3.00;;
24451;SDS011;13350;50.984;5.822;2022-12-07T14:34:59;6.18;;;3.05;;
24451;SDS011;13350;50.984;5.822;2022-12-07T14:37:29;4.97;;;2.70;;
24451;SDS011;13350;50.984;5.822;2022-12-07T14:39:57;7.40;;;2.70;;
24451;SDS011;13350;50.984;5.822;2022-12-07T14:42:25;6.88;;;2.60;;
24451;SDS011;13350;50.984;5.822;2022-12-07T14:44:56;7.07;;;2.92;;
24451;SDS011;13350;50.984;5.822;2022-12-07T14:47:23;7.05;;;2.83;;
24451;SDS011;13350;50.984;5.822;2022-12-07T14:49:52;5.70;;;2.65;;
24451;SDS011;13350;50.984;5.822;2022-12-07T14:52:20;5.07;;;2.05;;
24451;SDS011;13350;50.984;5.822;2022-12-07T14:54:52;3.97;;;2.00;;
24451;SDS011;13350;50.984;5.822;2022-12-07T14:57:19;4.78;;;2.53;;
24451;SDS011;13350;50.984;5.822;2022-12-07T14:59:47;5.20;;;2.40;;
24451;SDS011;13350;50.984;5.822;2022-12-07T15:02:14;4.60;;;2.05;;
24451;SDS011;13350;50.984;5.822;2022-12-07T15:04:41;4.18;;;2.42;;
24451;SDS011;13350;50.984;5.822;2022-12-07T15:07:10;7.80;;;2.50;;
24451;SDS011;13350;50.984;5.822;2022-12-07T15:09:43;4.93;;;2.72;;
24451;SDS011;13350;50.984;5.822;2022-12-07T15:12:11;4.63;;;2.58;;
24451;SDS011;13350;50.984;5.822;2022-12-07T15:14:39;6.13;;;3.17;;
24451;SDS011;13350;50.984;5.822;2022-12-07T15:17:06;5.60;;;3.13;;
24451;SDS011;13350;50.984;5.822;2022-12-07T15:19:36;5.15;;;2.40;;
24451;SDS011;13350;50.984;5.822;2022-12-07T15:22:03;4.45;;;2.67;;
24451;SDS011;13350;50.984;5.822;2022-12-07T15:24:31;6.38;;;2.90;;
24451;SDS011;13350;50.984;5.822;2022-12-07T15:26:59;5.22;;;2.03;;
24451;SDS011;13350;50.984;5.822;2022-12-07T15:29:28;4.93;;;2.60;;